Time;durP1;ratioP1;P1;durP2;ratioP2;P2;SDS_P1;SDS_P2;PMS_P1;PMS_P2;Temp;Humidity;BMP_temperature;BMP_pressure;BME280_temperature;BME280_humidity;BME280_pressure;Samples;Min_cycle;Max_cycle;Signal;HPM_P1;HPM_P2
2021/03/05 00:00:29;;;;;;;29.85;14.48;;;0.60;90.70;;;;;;6190092;22;20050;-86
2021/03/05 00:02:55;;;;;;;24.55;12.27;;;0.50;90.70;;;;;;6190528;22;20012;-87
2021/03/05 00:05:21;;;;;;;29.27;14.52;;;0.50;90.70;;;;;;6191031;22;20015;-87
2021/03/05 00:07:47;;;;;;;31.48;14.15;;;0.60;90.80;;;;;;6190935;22;20011;-87
2021/03/05 00:10:15;;;;;;;30.05;15.13;;;0.50;90.90;;;;;;6191093;22;20011;-87
2021/03/05 00:12:41;;;;;;;25.65;13.35;;;0.60;90.90;;;;;;6191736;22;20386;-87
2021/03/05 00:15:08;;;;;;;30.20;13.77;;;0.60;90.90;;;;;;6191908;22;20030;-87
2021/03/05 00:17:34;;;;;;;29.83;15.20;;;0.50;90.90;;;;;;6190841;22;20226;-86
2021/03/05 00:20:00;;;;;;;34.70;14.90;;;0.50;90.90;;;;;;6190902;22;20019;-86
2021/03/05 00:22:26;;;;;;;25.67;13.60;;;0.50;90.90;;;;;;6191837;22;20289;-86
2021/03/05 00:24:52;;;;;;;33.70;15.32;;;0.40;90.90;;;;;;6165190;22;20460;-86
2021/03/05 00:27:18;;;;;;;30.17;14.95;;;0.40;91.00;;;;;;6190808;22;20042;-86
2021/03/05 00:29:44;;;;;;;28.25;13.95;;;0.40;90.90;;;;;;6190407;22;20041;-87
2021/03/05 00:32:09;;;;;;;29.48;14.57;;;0.40;91.00;;;;;;6165403;22;20475;-86
2021/03/05 00:34:35;;;;;;;38.28;15.20;;;0.40;91.20;;;;;;6189931;22;20091;-87
2021/03/05 00:37:02;;;;;;;28.83;14.65;;;0.30;91.10;;;;;;6190384;22;20384;-86
2021/03/05 00:39:28;;;;;;;27.65;14.77;;;0.30;91.10;;;;;;6165713;22;20034;-87
2021/03/05 00:41:54;;;;;;;29.08;13.75;;;0.40;91.20;;;;;;6190740;22;20012;-86
2021/03/05 00:44:21;;;;;;;24.60;13.20;;;0.40;91.20;;;;;;6190038;22;20043;-87
2021/03/05 00:46:47;;;;;;;24.48;12.13;;;0.30;91.10;;;;;;6191158;22;20012;-85
2021/03/05 00:49:13;;;;;;;25.58;12.00;;;0.30;91.10;;;;;;6190199;22;20008;-86
2021/03/05 00:51:38;;;;;;;23.17;11.70;;;0.40;91.20;;;;;;6190826;22;20380;-85
2021/03/05 00:54:05;;;;;;;23.83;12.27;;;0.40;91.10;;;;;;6189695;22;20034;-86
2021/03/05 00:56:31;;;;;;;20.08;10.75;;;0.40;91.00;;;;;;6189647;22;20414;-87
2021/03/05 00:58:56;;;;;;;18.48;9.50;;;0.50;91.00;;;;;;6214589;22;20376;-85
2021/03/05 01:01:22;;;;;;;20.20;8.35;;;0.50;90.90;;;;;;6214964;22;20019;-86
2021/03/05 01:03:48;;;;;;;19.42;8.90;;;0.60;90.70;;;;;;6189431;22;20012;-86
2021/03/05 01:06:14;;;;;;;15.18;8.00;;;0.60;90.60;;;;;;6191502;22;20633;-86
2021/03/05 01:08:40;;;;;;;16.50;8.05;;;0.60;90.40;;;;;;6190422;22;20344;-86
2021/03/05 01:11:05;;;;;;;19.08;8.20;;;0.70;90.30;;;;;;6166377;22;20389;-87
2021/03/05 01:13:31;;;;;;;14.80;7.50;;;0.60;90.10;;;;;;6190962;22;20039;-86
2021/03/05 01:15:57;;;;;;;15.75;6.95;;;0.60;90.10;;;;;;6189970;22;20022;-86
2021/03/05 01:18:23;;;;;;;14.45;7.25;;;0.60;90.00;;;;;;6222300;22;20476;-87
2021/03/05 01:20:48;;;;;;;15.70;7.32;;;0.60;90.00;;;;;;6200606;22;20014;-87
2021/03/05 01:23:15;;;;;;;15.48;7.15;;;0.60;89.90;;;;;;6190548;22;20015;-86
2021/03/05 01:25:41;;;;;;;19.73;7.80;;;0.60;89.80;;;;;;6165135;22;20019;-86
2021/03/05 01:28:07;;;;;;;13.88;6.78;;;0.60;89.70;;;;;;6166075;22;20444;-87
2021/03/05 01:30:33;;;;;;;15.40;6.97;;;0.60;89.50;;;;;;6165728;22;20023;-87
2021/03/05 01:32:59;;;;;;;13.10;6.97;;;0.60;89.50;;;;;;6193293;22;20348;-87
2021/03/05 01:35:26;;;;;;;11.63;6.80;;;0.50;89.40;;;;;;6216879;22;20008;-86
2021/03/05 01:37:52;;;;;;;18.50;7.88;;;0.50;89.40;;;;;;6190308;22;20450;-86
2021/03/05 01:40:24;;;;;;;21.02;7.90;;;0.40;89.50;;;;;;6191466;22;20012;-86
2021/03/05 01:42:50;;;;;;;13.23;6.93;;;0.40;89.70;;;;;;6191847;22;20082;-87
2021/03/05 01:45:19;;;;;;;13.98;7.18;;;0.30;89.60;;;;;;6165374;22;20050;-87
2021/03/05 01:47:45;;;;;;;8.95;5.78;;;0.30;89.50;;;;;;6166426;22;20035;-86
2021/03/05 01:50:19;;;;;;;15.48;6.57;;;0.30;89.50;;;;;;6165790;22;20451;-86
2021/03/05 01:52:46;;;;;;;12.85;6.40;;;0.30;89.40;;;;;;6192126;22;20474;-87
2021/03/05 01:55:12;;;;;;;12.55;6.13;;;0.30;89.30;;;;;;6166318;22;20023;-87
2021/03/05 01:57:38;;;;;;;14.38;6.93;;;0.30;89.30;;;;;;6191339;22;20015;-87
2021/03/05 02:00:04;;;;;;;11.85;6.22;;;0.20;89.20;;;;;;6190364;22;20016;-86
2021/03/05 02:02:30;;;;;;;14.57;6.75;;;0.20;89.40;;;;;;6191823;22;20285;-86
2021/03/05 02:04:56;;;;;;;12.93;6.70;;;0.10;89.60;;;;;;6216229;22;20015;-87
2021/03/05 02:07:22;;;;;;;12.40;6.53;;;0.00;89.50;;;;;;6193005;22;20039;-87
2021/03/05 02:09:48;;;;;;;15.82;7.95;;;0.00;89.50;;;;;;6191829;22;20016;-87
2021/03/05 02:12:13;;;;;;;17.05;7.35;;;-0.10;89.70;;;;;;6192585;22;20086;-87
2021/03/05 02:14:39;;;;;;;16.80;8.00;;;-0.20;89.80;;;;;;6192166;22;20022;-87
2021/03/05 02:17:26;;;;;;;17.25;8.65;;;-0.20;90.00;;;;;;6166961;22;20069;-87
2021/03/05 02:20:22;;;;;;;20.77;9.23;;;-0.30;90.10;;;;;;6192182;22;20046;-86
2021/03/05 02:23:09;;;;;;;17.33;9.00;;;-0.40;90.10;;;;;;6218429;22;20019;-87
2021/03/05 02:26:01;;;;;;;14.90;8.25;;;-0.40;90.50;;;;;;6242075;22;20069;-87
2021/03/05 02:28:52;;;;;;;23.63;9.98;;;-0.40;90.20;;;;;;6222846;22;20026;-87
2021/03/05 02:31:31;;;;;;;16.55;9.45;;;-0.50;90.20;;;;;;6217229;22;20395;-87
2021/03/05 02:34:20;;;;;;;19.33;9.63;;;-0.50;90.20;;;;;;6193669;22;20015;-87
2021/03/05 02:36:54;;;;;;;19.48;9.63;;;-0.60;90.20;;;;;;6194227;22;20098;-87
2021/03/05 02:39:39;;;;;;;21.05;10.40;;;-0.60;90.30;;;;;;6217025;22;20015;-87
2021/03/05 02:42:06;;;;;;;18.40;9.52;;;-0.60;90.40;;;;;;6195746;22;20425;-87
2021/03/05 02:44:33;;;;;;;16.90;9.40;;;-0.70;90.40;;;;;;6166880;22;20490;-87
2021/03/05 02:47:02;;;;;;;19.23;10.07;;;-0.70;90.40;;;;;;6191293;22;20125;-87
2021/03/05 02:49:31;;;;;;;20.05;9.38;;;-0.70;90.50;;;;;;6190502;22;20151;-87
2021/03/05 02:51:58;;;;;;;17.70;9.20;;;-0.70;90.50;;;;;;6215442;22;20468;-87
2021/03/05 02:54:25;;;;;;;25.00;9.13;;;-0.70;90.50;;;;;;6192190;22;20227;-87
2021/03/05 02:56:51;;;;;;;17.63;9.27;;;-0.70;90.60;;;;;;6190350;22;20019;-87
2021/03/05 02:59:17;;;;;;;19.42;9.88;;;-0.80;90.60;;;;;;6164911;22;20050;-87
2021/03/05 03:01:47;;;;;;;20.35;9.75;;;-0.80;90.60;;;;;;6189301;22;20015;-87
2021/03/05 03:04:13;;;;;;;18.10;9.35;;;-0.80;90.60;;;;;;6190210;22;20522;-87
2021/03/05 03:06:39;;;;;;;19.80;10.57;;;-0.80;90.70;;;;;;6163988;22;20347;-87
2021/03/05 03:09:05;;;;;;;19.13;9.25;;;-0.80;90.70;;;;;;6190602;22;20086;-87
2021/03/05 03:11:32;;;;;;;21.55;8.40;;;-0.90;90.60;;;;;;6214304;22;20023;-86
2021/03/05 03:13:58;;;;;;;20.85;9.93;;;-0.90;90.70;;;;;;6202674;22;20017;-87
2021/03/05 03:16:24;;;;;;;14.60;8.05;;;-0.80;90.80;;;;;;6212322;22;20015;-87
2021/03/05 03:18:49;;;;;;;15.85;8.18;;;-0.90;90.70;;;;;;6189137;22;20015;-86
2021/03/05 03:21:15;;;;;;;15.85;8.32;;;-1.00;90.60;;;;;;6189826;22;20371;-87
2021/03/05 03:23:41;;;;;;;20.83;8.52;;;-1.00;90.50;;;;;;6189924;22;20326;-87
2021/03/05 03:26:08;;;;;;;15.30;8.35;;;-1.10;90.60;;;;;;6190457;22;20419;-87
2021/03/05 03:28:37;;;;;;;19.33;8.65;;;-1.10;90.60;;;;;;6190664;22;20046;-87
2021/03/05 03:31:04;;;;;;;17.10;7.55;;;-1.10;90.70;;;;;;6189440;22;20035;-87
2021/03/05 03:33:30;;;;;;;17.25;8.15;;;-1.10;91.00;;;;;;6213879;22;20489;-86
2021/03/05 03:35:56;;;;;;;15.07;8.07;;;-1.10;90.70;;;;;;6214614;22;20035;-87
2021/03/05 03:38:22;;;;;;;15.75;8.48;;;-1.10;90.80;;;;;;6189050;22;20014;-86
2021/03/05 03:40:48;;;;;;;15.65;7.63;;;-1.20;90.80;;;;;;6189663;22;20452;-86
2021/03/05 03:43:13;;;;;;;17.85;7.95;;;-1.10;90.90;;;;;;6189214;22;20149;-86
2021/03/05 03:45:40;;;;;;;19.50;7.93;;;-1.20;90.70;;;;;;6215705;22;20007;-87
2021/03/05 03:48:06;;;;;;;18.00;8.38;;;-1.10;90.70;;;;;;6214055;22;20513;-86
2021/03/05 03:50:57;;;;;;;16.13;8.05;;;-1.20;90.70;;;;;;6190011;22;20459;-86
2021/03/05 03:53:25;;;;;;;16.63;8.30;;;-1.20;90.70;;;;;;6214307;22;20356;-86
2021/03/05 03:55:52;;;;;;;19.77;8.15;;;-1.20;90.70;;;;;;6214712;22;20102;-86
2021/03/05 03:58:21;;;;;;;16.25;8.77;;;-1.30;90.70;;;;;;6188531;22;20018;-86
2021/03/05 04:00:47;;;;;;;16.60;7.70;;;-1.30;90.70;;;;;;6189563;22;20016;-86
2021/03/05 04:03:13;;;;;;;19.48;7.93;;;-1.30;90.70;;;;;;6189257;22;20019;-86
2021/03/05 04:05:42;;;;;;;19.55;7.18;;;-1.30;90.80;;;;;;6189727;22;20018;-86
2021/03/05 04:08:08;;;;;;;17.60;7.72;;;-1.30;90.80;;;;;;6214207;22;20011;-87
2021/03/05 04:10:35;;;;;;;16.27;7.28;;;-1.40;90.70;;;;;;6188887;22;20026;-87
2021/03/05 04:13:01;;;;;;;14.23;7.70;;;-1.40;90.70;;;;;;6189080;22;20031;-86
2021/03/05 04:15:26;;;;;;;17.60;7.35;;;-1.50;90.70;;;;;;6213236;22;20062;-86
2021/03/05 04:17:52;;;;;;;14.75;8.10;;;-1.50;90.80;;;;;;6212778;22;20031;-86
2021/03/05 04:20:20;;;;;;;16.50;7.57;;;-1.60;90.90;;;;;;6213927;22;20019;-86
2021/03/05 04:22:46;;;;;;;16.38;7.22;;;-1.60;90.90;;;;;;6188687;22;20054;-87
2021/03/05 04:25:15;;;;;;;16.15;7.35;;;-1.60;90.90;;;;;;6189348;22;20011;-87
2021/03/05 04:27:41;;;;;;;16.20;7.78;;;-1.70;90.90;;;;;;6188125;22;20026;-87
2021/03/05 04:30:08;;;;;;;16.38;6.97;;;-1.70;90.90;;;;;;6189392;22;20397;-87
2021/03/05 04:32:34;;;;;;;14.00;7.15;;;-1.70;90.90;;;;;;6164564;22;20016;-87
2021/03/05 04:35:00;;;;;;;13.48;6.18;;;-1.70;90.90;;;;;;6213942;22;20387;-87
2021/03/05 04:37:26;;;;;;;19.30;6.55;;;-1.80;91.30;;;;;;6164135;22;20645;-86
2021/03/05 04:39:52;;;;;;;13.63;6.10;;;-1.70;91.30;;;;;;6189616;22;20044;-86
2021/03/05 04:42:17;;;;;;;18.88;5.65;;;-1.70;91.00;;;;;;6190773;22;20659;-87
2021/03/05 04:44:43;;;;;;;13.85;6.28;;;-1.70;91.00;;;;;;6187631;22;20012;-86
2021/03/05 04:47:09;;;;;;;8.55;4.32;;;-1.70;91.00;;;;;;6189342;22;20018;-86
2021/03/05 04:49:35;;;;;;;12.98;5.53;;;-1.70;90.90;;;;;;6188746;22;20199;-87
2021/03/05 04:52:01;;;;;;;12.75;5.13;;;-1.80;90.90;;;;;;6188988;22;20049;-87
2021/03/05 04:54:26;;;;;;;10.68;5.63;;;-1.80;90.90;;;;;;6189012;22;20462;-86
2021/03/05 04:56:52;;;;;;;17.45;4.88;;;-1.80;90.90;;;;;;6213317;22;20090;-86
2021/03/05 04:59:18;;;;;;;14.60;5.13;;;-1.80;90.90;;;;;;6163767;22;20376;-86
2021/03/05 05:01:44;;;;;;;13.88;5.00;;;-1.80;91.00;;;;;;6189243;22;20008;-86
2021/03/05 05:04:09;;;;;;;15.75;5.10;;;-1.70;91.10;;;;;;6213643;22;20011;-86
2021/03/05 05:06:35;;;;;;;16.05;4.78;;;-1.70;91.00;;;;;;6164408;22;20402;-86
2021/03/05 05:09:01;;;;;;;10.82;4.68;;;-1.70;91.00;;;;;;6189362;22;20558;-86
2021/03/05 05:11:26;;;;;;;12.70;4.15;;;-1.70;91.00;;;;;;6213944;22;20419;-86
2021/03/05 05:13:52;;;;;;;15.65;4.47;;;-1.80;91.00;;;;;;6163926;22;20061;-87
2021/03/05 05:16:20;;;;;;;15.05;4.70;;;-1.70;91.00;;;;;;6190174;22;20018;-86
2021/03/05 05:18:46;;;;;;;17.10;5.82;;;-1.80;91.00;;;;;;6187544;22;20621;-87
2021/03/05 05:21:12;;;;;;;15.50;4.20;;;-1.80;90.90;;;;;;6190420;22;20008;-87
2021/03/05 05:23:38;;;;;;;16.63;4.70;;;-1.80;91.00;;;;;;6189996;22;20012;-86
2021/03/05 05:26:03;;;;;;;13.25;3.95;;;-1.80;90.90;;;;;;6190279;22;20011;-86
2021/03/05 05:28:30;;;;;;;9.88;3.85;;;-1.80;91.00;;;;;;6165553;22;20359;-87
2021/03/05 05:30:56;;;;;;;15.88;4.30;;;-1.90;91.00;;;;;;6190382;22;20103;-86
2021/03/05 05:33:21;;;;;;;11.15;4.25;;;-1.80;91.00;;;;;;6189596;22;20015;-87
2021/03/05 05:35:47;;;;;;;9.52;3.70;;;-1.90;90.90;;;;;;6215385;22;20081;-86
2021/03/05 05:38:13;;;;;;;14.70;4.18;;;-1.90;90.90;;;;;;6165995;22;20008;-86
2021/03/05 05:40:42;;;;;;;13.60;4.43;;;-1.90;90.90;;;;;;6218068;22;20393;-86
2021/03/05 05:43:08;;;;;;;12.43;4.28;;;-1.90;90.90;;;;;;6190388;22;20090;-86
2021/03/05 05:45:33;;;;;;;13.73;4.80;;;-1.90;90.90;;;;;;6240975;22;20050;-86
2021/03/05 05:48:02;;;;;;;8.27;3.78;;;-1.90;91.00;;;;;;6191163;22;20061;-86
2021/03/05 05:50:29;;;;;;;11.63;3.72;;;-1.90;90.90;;;;;;6216415;22;20015;-87
2021/03/05 05:52:56;;;;;;;12.68;3.70;;;-1.90;91.00;;;;;;6189903;22;20015;-87
2021/03/05 05:55:24;;;;;;;10.85;3.95;;;-1.90;91.00;;;;;;6191201;22;20479;-87
2021/03/05 05:57:49;;;;;;;11.07;3.38;;;-1.90;90.90;;;;;;6190771;22;20349;-86
2021/03/05 06:00:16;;;;;;;7.85;3.65;;;-1.90;90.90;;;;;;6190225;22;20323;-87
2021/03/05 06:02:44;;;;;;;10.07;3.22;;;-1.90;91.00;;;;;;6189428;22;20011;-86
2021/03/05 06:05:15;;;;;;;11.55;4.40;;;-1.90;90.90;;;;;;6168446;22;20012;-87
2021/03/05 06:07:42;;;;;;;12.93;3.83;;;-2.00;90.80;;;;;;6191425;22;20460;-86
2021/03/05 06:10:12;;;;;;;14.43;4.22;;;-2.00;90.80;;;;;;6216225;22;20012;-87
2021/03/05 06:12:39;;;;;;;9.35;2.80;;;-2.00;90.80;;;;;;6214098;22;20016;-87
2021/03/05 06:15:09;;;;;;;8.68;2.80;;;-2.00;90.80;;;;;;6191862;22;20012;-87
2021/03/05 06:17:45;;;;;;;11.63;2.78;;;-2.00;90.70;;;;;;6189826;22;20272;-87
2021/03/05 06:20:14;;;;;;;11.25;2.60;;;-2.00;90.80;;;;;;6190675;22;20093;-87
2021/03/05 06:22:40;;;;;;;8.90;2.60;;;-2.10;90.70;;;;;;6190519;22;20037;-86
2021/03/05 06:25:10;;;;;;;14.25;2.72;;;-2.00;90.70;;;;;;6214393;22;20774;-86
2021/03/05 06:27:37;;;;;;;10.15;2.00;;;-2.00;90.70;;;;;;6200326;22;20077;-87
2021/03/05 06:30:03;;;;;;;11.38;2.55;;;-2.00;90.70;;;;;;6215766;22;20022;-86
2021/03/05 06:32:40;;;;;;;11.65;2.53;;;-2.00;90.70;;;;;;6190857;22;20065;-87
2021/03/05 06:35:08;;;;;;;9.05;2.67;;;-2.00;90.70;;;;;;6188775;22;20110;-86
2021/03/05 06:37:46;;;;;;;13.75;2.80;;;-2.00;90.70;;;;;;6189143;22;20391;-87
2021/03/05 06:40:14;;;;;;;8.10;3.80;;;-2.00;90.70;;;;;;6190240;22;20026;-86
2021/03/05 06:42:56;;;;;;;9.38;2.60;;;-2.00;90.70;;;;;;6215820;22;20019;-86
2021/03/05 06:45:24;;;;;;;12.20;2.30;;;-2.00;90.70;;;;;;6192059;22;20077;-85
2021/03/05 06:48:01;;;;;;;6.43;2.05;;;-1.90;90.70;;;;;;6216455;22;20008;-85
2021/03/05 06:50:26;;;;;;;13.77;3.55;;;-1.90;90.70;;;;;;6165884;22;20103;-84
2021/03/05 06:52:55;;;;;;;9.68;2.22;;;-1.90;90.70;;;;;;6193552;22;20146;-85
2021/03/05 06:55:21;;;;;;;7.07;2.05;;;-1.90;90.70;;;;;;6190853;22;20043;-85
2021/03/05 06:57:48;;;;;;;7.63;2.33;;;-1.90;90.60;;;;;;6190335;22;20012;-85
2021/03/05 07:00:18;;;;;;;11.32;2.00;;;-1.80;90.60;;;;;;6190671;22;20060;-84
2021/03/05 07:02:44;;;;;;;7.88;2.38;;;-1.80;90.70;;;;;;6190525;22;20019;-84
2021/03/05 07:05:10;;;;;;;9.35;2.83;;;-1.80;90.60;;;;;;6190885;22;20432;-85
2021/03/05 07:07:43;;;;;;;13.10;2.42;;;-1.80;90.60;;;;;;6191130;22;20015;-85
2021/03/05 07:10:10;;;;;;;10.80;2.17;;;-1.70;90.70;;;;;;6190818;22;20016;-84
2021/03/05 07:12:36;;;;;;;8.15;1.98;;;-1.70;90.70;;;;;;6166651;22;20015;-85
2021/03/05 07:15:06;;;;;;;10.68;2.40;;;-1.70;90.70;;;;;;6215721;22;20019;-85
2021/03/05 07:17:33;;;;;;;7.20;2.17;;;-1.60;90.70;;;;;;6187385;22;20007;-85
2021/03/05 07:19:58;;;;;;;12.13;1.90;;;-1.60;90.60;;;;;;6191639;22;20043;-85
2021/03/05 07:22:25;;;;;;;13.05;2.65;;;-1.50;90.60;;;;;;6191394;22;20011;-86
2021/03/05 07:24:51;;;;;;;9.23;2.13;;;-1.50;90.60;;;;;;6192523;22;20026;-85
2021/03/05 07:27:17;;;;;;;6.28;2.10;;;-1.40;90.60;;;;;;6191623;22;20389;-85
2021/03/05 07:29:46;;;;;;;12.55;2.55;;;-1.40;90.60;;;;;;6192074;22;20015;-85
2021/03/05 07:32:23;;;;;;;9.60;2.28;;;-1.40;90.60;;;;;;6193542;22;20019;-85
2021/03/05 07:34:57;;;;;;;15.07;2.03;;;-1.30;90.50;;;;;;6193831;22;20008;-85
2021/03/05 07:37:25;;;;;;;15.23;1.85;;;-1.20;90.50;;;;;;6192402;22;20011;-86
2021/03/05 07:39:51;;;;;;;15.63;2.10;;;-1.10;90.50;;;;;;6192518;22;20047;-86
2021/03/05 07:42:18;;;;;;;7.45;1.83;;;-1.00;90.40;;;;;;6191612;22;20012;-86
2021/03/05 07:44:44;;;;;;;8.32;2.30;;;-0.80;90.40;;;;;;6191807;22;20335;-86
2021/03/05 07:47:14;;;;;;;6.18;1.77;;;-0.80;90.40;;;;;;6191524;22;20008;-86
2021/03/05 07:49:40;;;;;;;10.20;1.85;;;-0.60;90.30;;;;;;6217061;22;20158;-86
2021/03/05 07:52:06;;;;;;;6.68;2.17;;;-0.60;90.20;;;;;;6193005;22;20082;-85
2021/03/05 07:54:51;;;;;;;10.65;1.95;;;-0.50;90.20;;;;;;6191903;22;20480;-86
2021/03/05 07:57:19;;;;;;;7.22;1.80;;;-0.40;90.50;;;;;;6201391;22;20339;-86
2021/03/05 07:59:47;;;;;;;5.00;1.70;;;-0.40;90.10;;;;;;6242389;22;20046;-85
2021/03/05 08:02:13;;;;;;;5.97;1.45;;;-0.20;90.00;;;;;;6191768;22;20034;-86
2021/03/05 08:04:59;;;;;;;8.23;1.75;;;-0.10;89.90;;;;;;6192054;22;20008;-85
2021/03/05 08:07:29;;;;;;;3.95;1.02;;;-0.10;89.70;;;;;;6241327;22;20008;-86
2021/03/05 08:09:56;;;;;;;6.68;1.20;;;0.10;89.20;;;;;;6192101;22;20016;-86
2021/03/05 08:12:45;;;;;;;4.00;1.92;;;0.30;88.20;;;;;;6191779;22;20016;-86
2021/03/05 08:15:11;;;;;;;7.38;1.42;;;0.50;87.00;;;;;;6242161;22;20015;-86
2021/03/05 08:17:40;;;;;;;5.20;1.20;;;0.70;87.10;;;;;;6241451;22;20012;-86
2021/03/05 08:20:07;;;;;;;10.32;1.70;;;0.80;86.00;;;;;;6192752;22;20022;-86
2021/03/05 08:22:33;;;;;;;4.25;1.35;;;1.00;85.50;;;;;;6216258;22;20073;-87
2021/03/05 08:25:25;;;;;;;9.00;1.42;;;1.10;85.30;;;;;;6190839;22;20015;-86
2021/03/05 08:27:51;;;;;;;3.83;1.00;;;1.20;83.10;;;;;;6215886;22;20011;-87
2021/03/05 08:30:19;;;;;;;7.72;1.25;;;1.30;83.10;;;;;;6216307;22;20099;-87
2021/03/05 08:32:58;;;;;;;1.92;0.80;;;1.50;82.50;;;;;;6191981;22;20098;-87
2021/03/05 08:35:34;;;;;;;7.68;1.40;;;1.60;81.90;;;;;;6229163;22;20012;-86
2021/03/05 08:38:03;;;;;;;5.53;0.98;;;1.70;81.20;;;;;;6242185;22;20371;-87
2021/03/05 08:40:38;;;;;;;4.55;1.00;;;1.80;81.00;;;;;;6218861;22;20099;-87
2021/03/05 08:43:10;;;;;;;6.97;1.05;;;1.90;80.90;;;;;;6192417;22;20032;-87
2021/03/05 08:45:40;;;;;;;8.95;0.98;;;2.10;79.80;;;;;;6216388;22;20020;-87
2021/03/05 08:48:06;;;;;;;5.47;1.30;;;2.10;78.50;;;;;;6167191;22;20043;-87
2021/03/05 08:50:36;;;;;;;5.72;1.40;;;2.20;78.70;;;;;;6191175;22;20344;-87
2021/03/05 08:53:04;;;;;;;2.47;1.00;;;2.40;78.90;;;;;;6217495;22;20047;-87
2021/03/05 08:55:30;;;;;;;4.40;1.02;;;2.50;78.30;;;;;;6191924;22;20356;-87
2021/03/05 08:57:56;;;;;;;6.80;0.80;;;2.50;77.80;;;;;;6193827;22;20090;-88
2021/03/05 09:00:27;;;;;;;3.65;0.55;;;2.60;77.80;;;;;;6168550;22;20482;-87
2021/03/05 09:02:56;;;;;;;5.50;1.30;;;2.70;77.50;;;;;;6195243;22;20058;-89
2021/03/05 09:05:26;;;;;;;3.72;0.93;;;2.80;77.70;;;;;;6169053;22;20046;-87
2021/03/05 09:07:55;;;;;;;7.63;1.13;;;2.80;76.50;;;;;;6193098;22;20448;-88
2021/03/05 09:10:36;;;;;;;5.60;1.33;;;3.00;75.20;;;;;;6168346;22;20012;-86
2021/03/05 09:13:02;;;;;;;3.83;0.88;;;3.10;75.30;;;;;;6196294;22;20012;-86
2021/03/05 09:15:40;;;;;;;3.90;1.10;;;3.10;75.30;;;;;;6218331;22;20106;-87
2021/03/05 09:18:07;;;;;;;4.78;1.35;;;3.20;75.10;;;;;;6193839;22;20343;-87
2021/03/05 09:20:35;;;;;;;9.15;1.40;;;3.20;74.30;;;;;;6218617;22;20030;-86
2021/03/05 09:23:29;;;;;;;3.85;0.60;;;3.20;72.70;;;;;;6192951;22;20357;-87
2021/03/05 09:25:58;;;;;;;4.85;0.70;;;3.20;72.90;;;;;;6276185;22;20011;-87
2021/03/05 09:28:25;;;;;;;4.97;0.90;;;3.30;72.80;;;;;;6193984;22;20008;-87
2021/03/05 09:30:56;;;;;;;2.00;0.80;;;3.40;73.50;;;;;;6194450;22;20023;-88
2021/03/05 09:33:30;;;;;;;4.93;0.98;;;3.40;71.80;;;;;;6218291;22;20494;-87
2021/03/05 09:36:15;;;;;;;4.78;0.60;;;3.40;73.00;;;;;;6219418;22;20011;-88
2021/03/05 09:38:45;;;;;;;2.25;0.50;;;3.60;71.90;;;;;;6192966;22;20093;-87
2021/03/05 09:41:12;;;;;;;6.05;0.60;;;3.70;72.70;;;;;;6169310;22;20290;-88
2021/03/05 09:43:38;;;;;;;2.00;0.70;;;3.80;72.10;;;;;;6218270;22;20008;-87
2021/03/05 09:46:23;;;;;;;4.60;1.08;;;3.80;72.20;;;;;;6193170;22;20091;-88
2021/03/05 09:48:50;;;;;;;3.47;0.95;;;3.90;71.50;;;;;;6218104;22;20339;-88
2021/03/05 09:51:16;;;;;;;7.10;1.05;;;4.00;72.80;;;;;;6193039;22;20072;-88
2021/03/05 09:53:53;;;;;;;3.15;0.80;;;4.00;70.60;;;;;;6168148;22;20468;-88
2021/03/05 09:56:22;;;;;;;4.55;0.98;;;4.00;70.20;;;;;;6193621;22;20193;-88
2021/03/05 09:58:56;;;;;;;3.85;0.93;;;4.00;69.80;;;;;;6193069;22;20444;-87
2021/03/05 10:01:22;;;;;;;3.78;1.40;;;4.10;69.60;;;;;;6192982;22;20019;-87
2021/03/05 10:03:55;;;;;;;3.20;0.90;;;4.10;69.60;;;;;;6168143;22;20521;-87
2021/03/05 10:06:21;;;;;;;8.02;1.70;;;4.20;69.30;;;;;;6193363;22;20018;-86
2021/03/05 10:09:00;;;;;;;3.35;0.90;;;4.30;68.50;;;;;;6193682;22;20349;-87
2021/03/05 10:11:45;;;;;;;7.70;1.92;;;4.30;67.60;;;;;;6219318;22;20022;-87
2021/03/05 10:14:11;;;;;;;3.20;0.82;;;4.30;68.00;;;;;;6193224;22;20463;-85
2021/03/05 10:16:41;;;;;;;3.85;1.20;;;4.40;66.70;;;;;;6218686;22;20464;-87
2021/03/05 10:19:10;;;;;;;3.72;1.00;;;4.40;66.80;;;;;;6193060;22;20337;-85
2021/03/05 10:21:44;;;;;;;3.00;1.20;;;4.40;66.90;;;;;;6243558;22;20440;-87
2021/03/05 10:24:14;;;;;;;6.00;1.50;;;4.50;66.10;;;;;;6192582;22;20008;-86
2021/03/05 10:29:24;;;;;;;2.22;0.73;;;4.60;65.70;;;;;;6200290;22;20351;-88
2021/03/05 10:31:52;;;;;;;4.30;1.00;;;4.60;66.00;;;;;;6193173;22;20008;-86
2021/03/05 10:34:28;;;;;;;5.28;1.10;;;4.70;66.40;;;;;;6168984;22;20012;-84
2021/03/05 10:36:56;;;;;;;3.38;1.08;;;4.80;65.40;;;;;;6204626;22;20012;-86
2021/03/05 10:39:21;;;;;;;7.05;1.15;;;4.90;64.80;;;;;;6167608;22;20022;-86
2021/03/05 10:41:52;;;;;;;4.43;1.00;;;4.90;64.90;;;;;;6191760;22;20464;-87
2021/03/05 10:44:17;;;;;;;6.82;0.90;;;5.00;64.00;;;;;;6191893;22;20066;-87
2021/03/05 10:46:43;;;;;;;1.70;0.70;;;5.10;65.10;;;;;;6167031;22;20012;-85
2021/03/05 10:49:09;;;;;;;4.13;0.90;;;5.20;64.70;;;;;;6217503;22;20019;-86
2021/03/05 10:51:35;;;;;;;8.07;1.20;;;5.30;64.30;;;;;;6192509;22;20016;-85
2021/03/05 10:54:01;;;;;;;3.92;1.10;;;5.40;63.60;;;;;;6193522;22;20122;-86
2021/03/05 10:56:27;;;;;;;7.30;0.90;;;5.70;64.30;;;;;;6194720;22;20015;-88
2021/03/05 10:58:53;;;;;;;5.07;1.08;;;5.90;63.70;;;;;;6216559;22;20019;-87
2021/03/05 11:01:19;;;;;;;4.40;1.15;;;6.10;64.10;;;;;;6214437;22;20008;-88
2021/03/05 11:03:45;;;;;;;4.47;0.80;;;6.20;64.60;;;;;;6240293;22;20039;-86
2021/03/05 11:06:11;;;;;;;2.03;0.52;;;6.20;63.70;;;;;;6217217;22;20026;-86
2021/03/05 11:08:37;;;;;;;5.53;0.82;;;6.10;62.50;;;;;;6193752;22;20091;-87
2021/03/05 11:11:02;;;;;;;3.70;0.90;;;5.90;63.40;;;;;;6167522;22;20348;-87
2021/03/05 11:13:28;;;;;;;2.97;1.15;;;5.70;63.60;;;;;;6192872;22;20016;-85
2021/03/05 11:15:54;;;;;;;6.22;2.00;;;5.70;63.60;;;;;;6190698;22;20481;-84
2021/03/05 11:18:20;;;;;;;3.00;0.90;;;5.60;63.20;;;;;;6191390;22;20082;-85
2021/03/05 11:20:45;;;;;;;5.40;1.83;;;5.60;63.30;;;;;;6191852;22;20028;-86
2021/03/05 11:23:11;;;;;;;3.45;0.77;;;5.60;62.60;;;;;;6191758;22;20425;-86
2021/03/05 11:25:37;;;;;;;3.63;1.00;;;5.60;62.20;;;;;;6192106;22;20061;-84
2021/03/05 11:28:04;;;;;;;3.67;0.98;;;5.60;62.20;;;;;;6202586;22;20019;-86
2021/03/05 11:30:30;;;;;;;3.35;1.20;;;5.50;62.00;;;;;;6216388;22;20019;-85
2021/03/05 11:32:57;;;;;;;8.82;0.90;;;5.50;61.70;;;;;;6192540;22;20169;-85
2021/03/05 11:35:25;;;;;;;3.42;0.90;;;5.60;61.70;;;;;;6216867;22;20011;-86
2021/03/05 11:37:51;;;;;;;5.20;1.45;;;5.80;61.10;;;;;;6190844;22;20461;-86
2021/03/05 11:40:17;;;;;;;3.53;0.77;;;5.90;62.00;;;;;;6191833;22;20019;-85
2021/03/05 11:42:43;;;;;;;8.70;1.15;;;6.20;61.40;;;;;;6190925;22;20011;-85
2021/03/05 11:45:10;;;;;;;2.45;0.80;;;6.30;61.10;;;;;;6191907;22;20066;-85
2021/03/05 11:47:36;;;;;;;5.45;0.85;;;6.40;60.40;;;;;;6215964;22;20464;-86
2021/03/05 11:50:03;;;;;;;2.75;0.73;;;6.30;60.20;;;;;;6190595;22;20015;-86
2021/03/05 11:52:30;;;;;;;6.55;1.05;;;6.10;60.60;;;;;;6193093;22;20023;-86
2021/03/05 11:54:56;;;;;;;4.57;1.10;;;6.00;61.40;;;;;;6191190;22;20085;-86
2021/03/05 11:57:22;;;;;;;2.55;0.80;;;5.90;61.20;;;;;;6191548;22;20014;-86
2021/03/05 11:59:48;;;;;;;3.95;0.80;;;5.80;61.80;;;;;;6191970;22;20382;-86
2021/03/05 12:02:14;;;;;;;3.33;0.82;;;5.90;61.90;;;;;;6193474;22;20034;-86
2021/03/05 12:04:41;;;;;;;3.65;0.65;;;6.20;61.10;;;;;;6218010;22;20034;-87
2021/03/05 12:07:07;;;;;;;4.88;0.88;;;6.50;60.90;;;;;;6166070;22;20098;-84
2021/03/05 12:09:33;;;;;;;3.78;0.68;;;6.50;60.70;;;;;;6166670;22;20471;-86
2021/03/05 12:11:59;;;;;;;4.28;1.10;;;6.70;60.60;;;;;;6192185;22;20348;-86
2021/03/05 12:14:25;;;;;;;7.53;1.13;;;6.90;60.20;;;;;;6241581;22;20018;-86
2021/03/05 12:16:52;;;;;;;8.63;1.00;;;7.20;59.70;;;;;;6166938;22;20012;-85
2021/03/05 12:19:18;;;;;;;4.15;0.70;;;7.60;59.70;;;;;;6191889;22;20011;-85
2021/03/05 12:21:45;;;;;;;4.47;0.90;;;7.70;57.50;;;;;;6192315;22;20011;-88
2021/03/05 12:24:11;;;;;;;2.78;0.75;;;7.50;56.60;;;;;;6192507;22;20372;-84
2021/03/05 12:26:56;;;;;;;3.80;0.90;;;7.50;57.60;;;;;;6182937;22;20027;-85
2021/03/05 12:29:42;;;;;;;3.08;0.73;;;7.50;57.50;;;;;;6183874;22;20016;-87
2021/03/05 12:32:37;;;;;;;3.75;0.93;;;7.50;57.70;;;;;;6183758;22;20026;-86
2021/03/05 12:35:22;;;;;;;2.65;0.80;;;7.50;55.30;;;;;;6205143;22;20019;-88
2021/03/05 12:38:09;;;;;;;5.20;0.90;;;7.30;57.00;;;;;;6183329;22;20490;-87
2021/03/05 12:40:36;;;;;;;3.25;0.65;;;7.30;57.50;;;;;;6241498;22;20075;-88
2021/03/05 12:43:02;;;;;;;3.22;1.23;;;7.20;56.70;;;;;;6192322;22;20355;-87
2021/03/05 12:45:28;;;;;;;4.35;1.17;;;7.20;56.70;;;;;;6217074;22;20087;-87
2021/03/05 12:47:53;;;;;;;4.38;0.85;;;7.40;57.30;;;;;;6166624;22;20261;-85
2021/03/05 12:50:19;;;;;;;3.92;0.93;;;7.60;55.30;;;;;;6192060;22;20011;-86
2021/03/05 12:52:45;;;;;;;3.53;0.88;;;8.00;55.30;;;;;;6190547;22;20022;-88
2021/03/05 12:55:12;;;;;;;6.22;1.10;;;8.20;54.80;;;;;;6166529;22;20396;-87